This is the latest recevied weather packets stored in our database for station/object WD9EKA. If no packets are shown the sender has not sent any weather packets the latest 10 day(s).
| Time | Temp. | Humidity | Pressure | Rain* | Wind** | Luminosity | Snow |
|---|---|---|---|---|---|---|---|
| 1777767642 | 10° C | 53% | 1013.6 hPa | 0 mm | - | - | - |
| 1777767333 | 10° C | 52% | 1013.7 hPa | 0 mm | - | - | - |
| 1777766973 | 10.56° C | 48% | 1013.7 hPa | 0 mm | - | - | - |
| 1777766613 | 11.11° C | 46% | 1013.7 hPa | 0 mm | - | - | - |
| 1777766253 | 11.67° C | 45% | 1013.7 hPa | 0 mm | - | - | - |
| 1777765893 | 12.22° C | 43% | 1013.6 hPa | 0 mm | - | - | - |
| 1777765579 | 12.22° C | 45% | 1013.7 hPa | 0 mm | - | - | - |
| 1777765259 | 12.22° C | 42% | 1013.6 hPa | 0 mm | - | - | - |
| 1777764939 | 12.78° C | 42% | 1013.5 hPa | 0 mm | - | - | - |
| 1777764633 | 12.78° C | 45% | 1013.6 hPa | 0 mm | - | - | - |
| 1777764273 | 12.78° C | 44% | 1013.3 hPa | 0 mm | - | - | - |
| 1777763962 | 12.78° C | 42% | 1013.5 hPa | 0 mm | - | - | - |
| 1777763644 | 13.33° C | 38% | 1013.6 hPa | 0 mm | - | - | - |
| 1777763313 | 12.78° C | 40% | 1013.5 hPa | 0 mm | - | - | - |
| 1777763013 | 12.78° C | 40% | 1013.5 hPa | 0 mm | - | - | - |
| 1777762653 | 12.78° C | 39% | 1013.6 hPa | 0 mm | - | - | - |
| 1777762347 | 13.33° C | 37% | 1013.6 hPa | 0 mm | - | - | - |
| 1777762027 | 13.89° C | 39% | 1013.5 hPa | 0 mm | - | - | - |
| 1777761707 | 13.89° C | 39% | 1013.7 hPa | 0 mm | - | - | - |
| 1777761393 | 13.89° C | 41% | 1013.5 hPa | 0 mm | - | - | - |
| 1777761083 | 13.89° C | 40% | 1013.3 hPa | 0 mm | - | - | - |
| 1777760764 | 13.33° C | 41% | 1013.5 hPa | 0 mm | - | - | - |
| 1777760443 | 13.33° C | 40% | 1013.3 hPa | 0 mm | - | - | - |
| 1777759806 | 13.33° C | 40% | 1013.4 hPa | 0 mm | - | - | - |
| 1777759163 | 12.78° C | 42% | 1013.5 hPa | 0 mm | - | - | - |
* Rain latest hour (hover to see other rain measurements)
** Current wind speed in m/s (hover to see current wind gust speed)